sensor_id;sensor_type;location;lat;lon;timestamp;temperature;humidity
17146;DHT22;8688;54.444;18.444;2024-03-08T00:01:44;-2.20;1.00
17146;DHT22;8688;54.444;18.444;2024-03-08T00:04:13;-2.20;1.00
17146;DHT22;8688;54.444;18.444;2024-03-08T00:06:42;-2.20;1.00
17146;DHT22;8688;54.444;18.444;2024-03-08T00:09:12;-2.30;1.00
17146;DHT22;8688;54.444;18.444;2024-03-08T00:11:40;-2.30;1.00
17146;DHT22;8688;54.444;18.444;2024-03-08T00:14:08;-2.40;1.00
17146;DHT22;8688;54.444;18.444;2024-03-08T00:16:36;-2.40;1.00
17146;DHT22;8688;54.444;18.444;2024-03-08T00:19:04;-2.40;1.00
17146;DHT22;8688;54.444;18.444;2024-03-08T00:21:31;-2.40;1.00
17146;DHT22;8688;54.444;18.444;2024-03-08T00:23:59;-2.40;1.00
17146;DHT22;8688;54.444;18.444;2024-03-08T00:26:26;-2.40;1.00
17146;DHT22;8688;54.444;18.444;2024-03-08T00:28:54;-2.50;1.00
17146;DHT22;8688;54.444;18.444;2024-03-08T00:31:23;-2.50;1.00
17146;DHT22;8688;54.444;18.444;2024-03-08T00:33:51;-2.50;99.90
17146;DHT22;8688;54.444;18.444;2024-03-08T00:36:18;-2.60;99.90
17146;DHT22;8688;54.444;18.444;2024-03-08T00:38:46;-2.60;99.90
17146;DHT22;8688;54.444;18.444;2024-03-08T00:41:13;-2.60;99.90
17146;DHT22;8688;54.444;18.444;2024-03-08T00:43:41;-2.60;99.90
17146;DHT22;8688;54.444;18.444;2024-03-08T00:46:08;-2.60;99.90
17146;DHT22;8688;54.444;18.444;2024-03-08T00:48:37;-2.60;99.90
17146;DHT22;8688;54.444;18.444;2024-03-08T00:51:06;-2.70;99.90
17146;DHT22;8688;54.444;18.444;2024-03-08T00:53:34;-2.60;99.90
17146;DHT22;8688;54.444;18.444;2024-03-08T00:56:02;-2.70;99.90
17146;DHT22;8688;54.444;18.444;2024-03-08T00:58:33;-2.70;99.90
17146;DHT22;8688;54.444;18.444;2024-03-08T01:01:01;-2.70;99.90
17146;DHT22;8688;54.444;18.444;2024-03-08T01:03:28;-2.70;99.90
17146;DHT22;8688;54.444;18.444;2024-03-08T01:05:59;-2.70;99.90
17146;DHT22;8688;54.444;18.444;2024-03-08T01:08:27;-2.70;99.90
17146;DHT22;8688;54.444;18.444;2024-03-08T01:10:54;-2.70;1.00
17146;DHT22;8688;54.444;18.444;2024-03-08T01:13:22;-2.80;1.00
17146;DHT22;8688;54.444;18.444;2024-03-08T01:15:49;-2.80;1.00
17146;DHT22;8688;54.444;18.444;2024-03-08T01:18:17;-2.90;1.00
17146;DHT22;8688;54.444;18.444;2024-03-08T01:20:45;-2.90;1.00
17146;DHT22;8688;54.444;18.444;2024-03-08T01:23:14;-2.90;1.00
17146;DHT22;8688;54.444;18.444;2024-03-08T01:25:42;-2.90;1.00
17146;DHT22;8688;54.444;18.444;2024-03-08T01:28:09;-3.00;1.00
17146;DHT22;8688;54.444;18.444;2024-03-08T01:30:37;-3.00;1.00
17146;DHT22;8688;54.444;18.444;2024-03-08T01:33:05;-3.00;1.00
17146;DHT22;8688;54.444;18.444;2024-03-08T01:35:32;-3.00;1.00
17146;DHT22;8688;54.444;18.444;2024-03-08T01:38:00;-3.00;1.00
17146;DHT22;8688;54.444;18.444;2024-03-08T01:40:29;-3.00;1.00
17146;DHT22;8688;54.444;18.444;2024-03-08T01:42:56;-3.00;1.00
17146;DHT22;8688;54.444;18.444;2024-03-08T01:45:24;-3.00;1.00
17146;DHT22;8688;54.444;18.444;2024-03-08T01:47:51;-3.00;1.00
17146;DHT22;8688;54.444;18.444;2024-03-08T01:50:19;-3.10;1.00
17146;DHT22;8688;54.444;18.444;2024-03-08T01:52:46;-3.10;1.00
17146;DHT22;8688;54.444;18.444;2024-03-08T01:55:14;-3.20;1.00
17146;DHT22;8688;54.444;18.444;2024-03-08T01:57:44;-3.20;1.00
17146;DHT22;8688;54.444;18.444;2024-03-08T02:00:13;-3.20;26.90
17146;DHT22;8688;54.444;18.444;2024-03-08T02:02:42;-3.30;92.60
17146;DHT22;8688;54.444;18.444;2024-03-08T02:05:10;-3.30;99.90
17146;DHT22;8688;54.444;18.444;2024-03-08T02:07:41;-3.30;99.90
17146;DHT22;8688;54.444;18.444;2024-03-08T02:10:10;-3.30;99.90
17146;DHT22;8688;54.444;18.444;2024-03-08T02:12:38;-3.30;99.90
17146;DHT22;8688;54.444;18.444;2024-03-08T02:15:08;-3.30;99.90
17146;DHT22;8688;54.444;18.444;2024-03-08T02:17:36;-3.20;85.90
17146;DHT22;8688;54.444;18.444;2024-03-08T02:20:04;-3.30;1.00
17146;DHT22;8688;54.444;18.444;2024-03-08T02:22:36;-3.30;1.00
17146;DHT22;8688;54.444;18.444;2024-03-08T02:25:05;-3.20;1.00
17146;DHT22;8688;54.444;18.444;2024-03-08T02:27:33;-3.20;1.00
17146;DHT22;8688;54.444;18.444;2024-03-08T02:30:00;-3.20;1.00
17146;DHT22;8688;54.444;18.444;2024-03-08T02:32:28;-3.20;1.00
17146;DHT22;8688;54.444;18.444;2024-03-08T02:34:57;-3.20;1.00
17146;DHT22;8688;54.444;18.444;2024-03-08T02:37:25;-3.20;1.00
17146;DHT22;8688;54.444;18.444;2024-03-08T02:39:56;-3.20;1.00
17146;DHT22;8688;54.444;18.444;2024-03-08T02:42:24;-3.20;1.00
17146;DHT22;8688;54.444;18.444;2024-03-08T02:44:51;-3.30;1.00
17146;DHT22;8688;54.444;18.444;2024-03-08T02:47:19;-3.30;1.00
17146;DHT22;8688;54.444;18.444;2024-03-08T02:49:47;-3.30;1.00
17146;DHT22;8688;54.444;18.444;2024-03-08T02:52:16;-3.30;1.00
17146;DHT22;8688;54.444;18.444;2024-03-08T02:54:43;-3.40;1.00
17146;DHT22;8688;54.444;18.444;2024-03-08T02:57:14;-3.30;1.00
17146;DHT22;8688;54.444;18.444;2024-03-08T02:59:41;-3.30;1.00
17146;DHT22;8688;54.444;18.444;2024-03-08T03:02:09;-3.40;1.00
17146;DHT22;8688;54.444;18.444;2024-03-08T03:04:39;-3.40;1.00
17146;DHT22;8688;54.444;18.444;2024-03-08T03:07:07;-3.40;1.00
17146;DHT22;8688;54.444;18.444;2024-03-08T03:09:34;-3.40;1.00
17146;DHT22;8688;54.444;18.444;2024-03-08T03:12:02;-3.40;1.00
17146;DHT22;8688;54.444;18.444;2024-03-08T03:14:31;-3.40;1.00
17146;DHT22;8688;54.444;18.444;2024-03-08T03:16:59;-3.30;99.90
17146;DHT22;8688;54.444;18.444;2024-03-08T03:19:28;-3.30;99.90
17146;DHT22;8688;54.444;18.444;2024-03-08T03:21:56;-3.20;1.00
17146;DHT22;8688;54.444;18.444;2024-03-08T03:24:24;-3.20;1.00
17146;DHT22;8688;54.444;18.444;2024-03-08T03:26:55;-3.20;1.00
17146;DHT22;8688;54.444;18.444;2024-03-08T03:29:23;-3.20;1.00
17146;DHT22;8688;54.444;18.444;2024-03-08T03:31:52;-3.20;92.40
17146;DHT22;8688;54.444;18.444;2024-03-08T03:34:20;-3.20;99.90
17146;DHT22;8688;54.444;18.444;2024-03-08T03:36:48;-3.20;99.90
17146;DHT22;8688;54.444;18.444;2024-03-08T03:39:16;-3.20;99.90
17146;DHT22;8688;54.444;18.444;2024-03-08T03:41:45;-3.20;1.00
17146;DHT22;8688;54.444;18.444;2024-03-08T03:44:14;-3.20;1.00
17146;DHT22;8688;54.444;18.444;2024-03-08T03:46:42;-3.10;1.00
17146;DHT22;8688;54.444;18.444;2024-03-08T03:49:12;-3.10;1.00
17146;DHT22;8688;54.444;18.444;2024-03-08T03:51:40;-3.10;1.00
17146;DHT22;8688;54.444;18.444;2024-03-08T03:54:07;-3.20;1.00
17146;DHT22;8688;54.444;18.444;2024-03-08T03:56:35;-3.20;1.10
17146;DHT22;8688;54.444;18.444;2024-03-08T03:59:02;-3.10;99.90
17146;DHT22;8688;54.444;18.444;2024-03-08T04:01:30;-3.10;99.90
17146;DHT22;8688;54.444;18.444;2024-03-08T04:03:57;-3.10;99.90
17146;DHT22;8688;54.444;18.444;2024-03-08T04:06:26;-3.10;99.90
17146;DHT22;8688;54.444;18.444;2024-03-08T04:08:54;-3.00;99.90
17146;DHT22;8688;54.444;18.444;2024-03-08T04:11:21;-3.00;1.00
17146;DHT22;8688;54.444;18.444;2024-03-08T04:13:49;-2.90;1.00
17146;DHT22;8688;54.444;18.444;2024-03-08T04:16:16;-2.90;1.00
17146;DHT22;8688;54.444;18.444;2024-03-08T04:18:45;-2.80;1.00
17146;DHT22;8688;54.444;18.444;2024-03-08T04:21:13;-2.80;1.00
17146;DHT22;8688;54.444;18.444;2024-03-08T04:23:42;-2.80;1.00
17146;DHT22;8688;54.444;18.444;2024-03-08T04:26:11;-2.70;1.00
17146;DHT22;8688;54.444;18.444;2024-03-08T04:28:39;-2.70;1.00
17146;DHT22;8688;54.444;18.444;2024-03-08T04:31:07;-2.60;1.00
17146;DHT22;8688;54.444;18.444;2024-03-08T04:33:35;-2.60;1.00
17146;DHT22;8688;54.444;18.444;2024-03-08T04:36:02;-2.60;1.00
17146;DHT22;8688;54.444;18.444;2024-03-08T04:38:31;-2.50;1.00
17146;DHT22;8688;54.444;18.444;2024-03-08T04:41:00;-2.50;1.00
17146;DHT22;8688;54.444;18.444;2024-03-08T04:43:28;-2.50;1.00
17146;DHT22;8688;54.444;18.444;2024-03-08T04:45:56;-2.40;1.00
17146;DHT22;8688;54.444;18.444;2024-03-08T04:48:24;-2.40;1.00
17146;DHT22;8688;54.444;18.444;2024-03-08T04:50:52;-2.40;99.90
17146;DHT22;8688;54.444;18.444;2024-03-08T04:53:21;-2.50;99.90
17146;DHT22;8688;54.444;18.444;2024-03-08T04:55:49;-2.40;99.90
17146;DHT22;8688;54.444;18.444;2024-03-08T04:58:18;-2.40;1.00
17146;DHT22;8688;54.444;18.444;2024-03-08T05:00:46;-2.40;1.00
17146;DHT22;8688;54.444;18.444;2024-03-08T05:03:14;-2.40;1.00
17146;DHT22;8688;54.444;18.444;2024-03-08T05:05:42;-2.30;1.00
17146;DHT22;8688;54.444;18.444;2024-03-08T05:08:09;-2.30;1.00
17146;DHT22;8688;54.444;18.444;2024-03-08T05:10:37;-2.30;99.90
17146;DHT22;8688;54.444;18.444;2024-03-08T05:13:04;-2.20;99.90
17146;DHT22;8688;54.444;18.444;2024-03-08T05:15:33;-2.20;99.90
17146;DHT22;8688;54.444;18.444;2024-03-08T05:18:02;-2.20;99.90
17146;DHT22;8688;54.444;18.444;2024-03-08T05:20:30;-2.20;1.00
17146;DHT22;8688;54.444;18.444;2024-03-08T05:22:57;-2.10;1.00
17146;DHT22;8688;54.444;18.444;2024-03-08T05:25:26;-2.10;1.00
17146;DHT22;8688;54.444;18.444;2024-03-08T05:27:53;-2.00;99.90
17146;DHT22;8688;54.444;18.444;2024-03-08T05:30:21;-2.00;99.90
17146;DHT22;8688;54.444;18.444;2024-03-08T05:32:50;-2.00;1.00
17146;DHT22;8688;54.444;18.444;2024-03-08T05:35:17;-1.90;1.00
17146;DHT22;8688;54.444;18.444;2024-03-08T05:37:44;-1.90;99.90
17146;DHT22;8688;54.444;18.444;2024-03-08T05:40:12;-1.90;99.90
17146;DHT22;8688;54.444;18.444;2024-03-08T05:42:39;-1.80;99.90
17146;DHT22;8688;54.444;18.444;2024-03-08T05:45:07;-1.80;99.90
17146;DHT22;8688;54.444;18.444;2024-03-08T05:47:36;-1.80;99.90
17146;DHT22;8688;54.444;18.444;2024-03-08T05:50:06;-1.70;99.90
17146;DHT22;8688;54.444;18.444;2024-03-08T05:52:36;-1.60;99.90
17146;DHT22;8688;54.444;18.444;2024-03-08T05:55:04;-1.60;99.90
17146;DHT22;8688;54.444;18.444;2024-03-08T05:57:33;-1.50;1.00
17146;DHT22;8688;54.444;18.444;2024-03-08T06:00:04;-1.50;99.90
17146;DHT22;8688;54.444;18.444;2024-03-08T06:02:32;-1.50;99.90
17146;DHT22;8688;54.444;18.444;2024-03-08T06:05:00;-1.40;1.00
17146;DHT22;8688;54.444;18.444;2024-03-08T06:07:29;-1.30;1.00
17146;DHT22;8688;54.444;18.444;2024-03-08T06:10:00;-1.20;1.00
17146;DHT22;8688;54.444;18.444;2024-03-08T06:12:28;-1.10;1.00
17146;DHT22;8688;54.444;18.444;2024-03-08T06:14:59;-1.10;1.00
17146;DHT22;8688;54.444;18.444;2024-03-08T06:17:27;-1.00;1.00
17146;DHT22;8688;54.444;18.444;2024-03-08T06:19:55;-0.80;1.00
17146;DHT22;8688;54.444;18.444;2024-03-08T06:22:22;-0.80;1.00
17146;DHT22;8688;54.444;18.444;2024-03-08T06:24:51;-0.70;1.00
17146;DHT22;8688;54.444;18.444;2024-03-08T06:27:20;-0.60;99.90
17146;DHT22;8688;54.444;18.444;2024-03-08T06:29:47;-0.60;99.90
17146;DHT22;8688;54.444;18.444;2024-03-08T06:32:15;-0.50;99.90
17146;DHT22;8688;54.444;18.444;2024-03-08T06:34:42;-0.40;99.90
17146;DHT22;8688;54.444;18.444;2024-03-08T06:37:10;-0.40;99.90
17146;DHT22;8688;54.444;18.444;2024-03-08T06:39:37;-0.30;99.90
17146;DHT22;8688;54.444;18.444;2024-03-08T06:42:07;-0.30;99.90
17146;DHT22;8688;54.444;18.444;2024-03-08T06:44:36;-0.20;99.90
17146;DHT22;8688;54.444;18.444;2024-03-08T06:47:04;-0.10;99.90
17146;DHT22;8688;54.444;18.444;2024-03-08T06:49:32;-0.10;99.90
17146;DHT22;8688;54.444;18.444;2024-03-08T06:51:59;-0.10;34.90
17146;DHT22;8688;54.444;18.444;2024-03-08T06:54:27;0.00;99.90
17146;DHT22;8688;54.444;18.444;2024-03-08T06:56:55;0.10;99.90
17146;DHT22;8688;54.444;18.444;2024-03-08T06:59:24;0.10;4.40
17146;DHT22;8688;54.444;18.444;2024-03-08T07:01:51;0.20;1.00
17146;DHT22;8688;54.444;18.444;2024-03-08T07:04:20;0.20;1.00
17146;DHT22;8688;54.444;18.444;2024-03-08T07:06:47;0.20;99.90
17146;DHT22;8688;54.444;18.444;2024-03-08T07:09:16;0.10;99.90
17146;DHT22;8688;54.444;18.444;2024-03-08T07:11:44;0.00;99.90
17146;DHT22;8688;54.444;18.444;2024-03-08T07:14:12;0.00;99.90
17146;DHT22;8688;54.444;18.444;2024-03-08T07:16:42;0.00;99.90
17146;DHT22;8688;54.444;18.444;2024-03-08T07:19:10;0.00;99.90
17146;DHT22;8688;54.444;18.444;2024-03-08T07:21:38;0.10;1.00
17146;DHT22;8688;54.444;18.444;2024-03-08T07:24:06;0.20;1.00
17146;DHT22;8688;54.444;18.444;2024-03-08T07:26:50;0.30;99.90
17146;DHT22;8688;54.444;18.444;2024-03-08T07:29:18;0.30;99.90
17146;DHT22;8688;54.444;18.444;2024-03-08T07:31:47;0.40;99.90
17146;DHT22;8688;54.444;18.444;2024-03-08T07:34:22;0.50;99.90
17146;DHT22;8688;54.444;18.444;2024-03-08T07:36:50;0.60;99.90
17146;DHT22;8688;54.444;18.444;2024-03-08T07:39:17;0.70;15.20
17146;DHT22;8688;54.444;18.444;2024-03-08T07:41:45;0.80;1.00
17146;DHT22;8688;54.444;18.444;2024-03-08T07:44:14;0.80;1.00
17146;DHT22;8688;54.444;18.444;2024-03-08T07:46:41;0.90;1.00
17146;DHT22;8688;54.444;18.444;2024-03-08T07:49:10;1.00;1.00
17146;DHT22;8688;54.444;18.444;2024-03-08T07:51:38;1.00;1.00
17146;DHT22;8688;54.444;18.444;2024-03-08T07:54:05;0.80;1.00
17146;DHT22;8688;54.444;18.444;2024-03-08T07:56:35;0.80;1.00
17146;DHT22;8688;54.444;18.444;2024-03-08T07:59:03;0.80;21.80
17146;DHT22;8688;54.444;18.444;2024-03-08T08:01:31;0.80;1.00
17146;DHT22;8688;54.444;18.444;2024-03-08T08:03:59;0.70;1.00
17146;DHT22;8688;54.444;18.444;2024-03-08T08:06:28;0.70;1.00
17146;DHT22;8688;54.444;18.444;2024-03-08T08:08:57;0.60;1.00
17146;DHT22;8688;54.444;18.444;2024-03-08T08:11:26;0.70;95.40
17146;DHT22;8688;54.444;18.444;2024-03-08T08:13:54;0.60;1.00
17146;DHT22;8688;54.444;18.444;2024-03-08T08:16:23;0.70;99.90
17146;DHT22;8688;54.444;18.444;2024-03-08T08:18:51;0.80;68.40
17146;DHT22;8688;54.444;18.444;2024-03-08T08:21:19;0.80;1.00
17146;DHT22;8688;54.444;18.444;2024-03-08T08:23:49;0.80;1.00
17146;DHT22;8688;54.444;18.444;2024-03-08T08:26:17;0.80;1.00
17146;DHT22;8688;54.444;18.444;2024-03-08T08:28:44;0.80;1.00
17146;DHT22;8688;54.444;18.444;2024-03-08T08:31:12;0.90;1.00
17146;DHT22;8688;54.444;18.444;2024-03-08T08:33:40;0.90;1.00
17146;DHT22;8688;54.444;18.444;2024-03-08T08:36:07;0.90;1.00
17146;DHT22;8688;54.444;18.444;2024-03-08T08:38:35;0.90;99.90
17146;DHT22;8688;54.444;18.444;2024-03-08T08:41:05;0.90;1.00
17146;DHT22;8688;54.444;18.444;2024-03-08T08:43:33;1.00;1.00
17146;DHT22;8688;54.444;18.444;2024-03-08T08:46:01;1.00;99.90
17146;DHT22;8688;54.444;18.444;2024-03-08T08:48:28;1.00;99.90
17146;DHT22;8688;54.444;18.444;2024-03-08T08:50:56;1.00;1.00
17146;DHT22;8688;54.444;18.444;2024-03-08T08:53:24;1.00;99.90
17146;DHT22;8688;54.444;18.444;2024-03-08T08:55:51;1.10;99.90
17146;DHT22;8688;54.444;18.444;2024-03-08T08:58:20;1.10;99.90
17146;DHT22;8688;54.444;18.444;2024-03-08T09:00:48;1.10;99.90
17146;DHT22;8688;54.444;18.444;2024-03-08T09:03:16;1.10;99.90
17146;DHT22;8688;54.444;18.444;2024-03-08T09:05:43;1.10;99.90
17146;DHT22;8688;54.444;18.444;2024-03-08T09:08:10;1.20;99.90
17146;DHT22;8688;54.444;18.444;2024-03-08T09:10:38;1.20;99.90
17146;DHT22;8688;54.444;18.444;2024-03-08T09:13:06;1.20;99.90
17146;DHT22;8688;54.444;18.444;2024-03-08T09:15:37;1.20;46.20
17146;DHT22;8688;54.444;18.444;2024-03-08T09:18:06;1.20;29.90
17146;DHT22;8688;54.444;18.444;2024-03-08T09:20:34;1.20;21.10
17146;DHT22;8688;54.444;18.444;2024-03-08T09:23:03;1.30;99.90
17146;DHT22;8688;54.444;18.444;2024-03-08T09:25:31;1.40;99.90
17146;DHT22;8688;54.444;18.444;2024-03-08T09:27:58;1.40;47.10
17146;DHT22;8688;54.444;18.444;2024-03-08T09:30:26;1.40;23.20
17146;DHT22;8688;54.444;18.444;2024-03-08T09:32:56;1.50;1.00
17146;DHT22;8688;54.444;18.444;2024-03-08T09:35:23;1.60;1.00
17146;DHT22;8688;54.444;18.444;2024-03-08T09:37:51;1.60;1.00
17146;DHT22;8688;54.444;18.444;2024-03-08T09:40:19;1.60;1.00
17146;DHT22;8688;54.444;18.444;2024-03-08T09:42:49;1.70;1.00
17146;DHT22;8688;54.444;18.444;2024-03-08T09:45:17;1.80;1.00
17146;DHT22;8688;54.444;18.444;2024-03-08T09:47:45;1.80;1.00
17146;DHT22;8688;54.444;18.444;2024-03-08T09:50:16;1.80;1.00
17146;DHT22;8688;54.444;18.444;2024-03-08T09:52:46;1.90;1.00
17146;DHT22;8688;54.444;18.444;2024-03-08T09:55:16;1.90;99.90
17146;DHT22;8688;54.444;18.444;2024-03-08T09:57:48;2.00;99.90
17146;DHT22;8688;54.444;18.444;2024-03-08T10:00:29;2.00;99.90
17146;DHT22;8688;54.444;18.444;2024-03-08T10:03:01;2.10;14.80
17146;DHT22;8688;54.444;18.444;2024-03-08T10:05:30;2.10;1.00
17146;DHT22;8688;54.444;18.444;2024-03-08T10:07:59;2.20;1.00
17146;DHT22;8688;54.444;18.444;2024-03-08T10:10:27;2.20;1.00
17146;DHT22;8688;54.444;18.444;2024-03-08T10:12:55;2.20;1.00
17146;DHT22;8688;54.444;18.444;2024-03-08T10:15:22;2.30;1.00
17146;DHT22;8688;54.444;18.444;2024-03-08T10:17:50;2.40;1.00
17146;DHT22;8688;54.444;18.444;2024-03-08T10:20:19;2.40;1.00
17146;DHT22;8688;54.444;18.444;2024-03-08T10:22:48;2.50;1.00
17146;DHT22;8688;54.444;18.444;2024-03-08T10:25:16;2.60;1.00
17146;DHT22;8688;54.444;18.444;2024-03-08T10:27:43;2.70;1.00
17146;DHT22;8688;54.444;18.444;2024-03-08T10:30:13;2.80;1.00
17146;DHT22;8688;54.444;18.444;2024-03-08T10:32:42;3.00;1.00
17146;DHT22;8688;54.444;18.444;2024-03-08T10:35:09;3.00;1.00
17146;DHT22;8688;54.444;18.444;2024-03-08T10:37:45;3.20;1.00
17146;DHT22;8688;54.444;18.444;2024-03-08T10:40:16;3.20;1.00
17146;DHT22;8688;54.444;18.444;2024-03-08T10:42:51;3.20;1.00
17146;DHT22;8688;54.444;18.444;2024-03-08T10:45:31;3.20;1.00
17146;DHT22;8688;54.444;18.444;2024-03-08T10:48:08;3.30;1.00
17146;DHT22;8688;54.444;18.444;2024-03-08T10:50:38;3.50;1.00
17146;DHT22;8688;54.444;18.444;2024-03-08T10:53:07;3.70;1.00
17146;DHT22;8688;54.444;18.444;2024-03-08T10:55:40;3.70;1.00
17146;DHT22;8688;54.444;18.444;2024-03-08T10:58:08;3.70;1.00
17146;DHT22;8688;54.444;18.444;2024-03-08T11:00:35;3.70;1.00
17146;DHT22;8688;54.444;18.444;2024-03-08T11:03:03;3.80;1.00
17146;DHT22;8688;54.444;18.444;2024-03-08T11:05:37;3.80;1.00
17146;DHT22;8688;54.444;18.444;2024-03-08T11:08:17;3.90;1.00
17146;DHT22;8688;54.444;18.444;2024-03-08T11:10:50;4.00;1.00
17146;DHT22;8688;54.444;18.444;2024-03-08T11:13:34;4.10;1.00
17146;DHT22;8688;54.444;18.444;2024-03-08T11:16:02;4.30;1.00
17146;DHT22;8688;54.444;18.444;2024-03-08T11:18:32;4.40;1.00
17146;DHT22;8688;54.444;18.444;2024-03-08T11:21:02;4.50;1.00
17146;DHT22;8688;54.444;18.444;2024-03-08T11:23:32;4.60;1.00
17146;DHT22;8688;54.444;18.444;2024-03-08T11:26:02;4.70;1.00
17146;DHT22;8688;54.444;18.444;2024-03-08T11:28:33;4.80;1.00
17146;DHT22;8688;54.444;18.444;2024-03-08T11:31:23;4.80;1.00
17146;DHT22;8688;54.444;18.444;2024-03-08T11:33:51;4.90;1.00
17146;DHT22;8688;54.444;18.444;2024-03-08T11:36:23;4.90;1.00
17146;DHT22;8688;54.444;18.444;2024-03-08T11:38:51;4.90;1.00
17146;DHT22;8688;54.444;18.444;2024-03-08T11:41:24;5.00;1.00
17146;DHT22;8688;54.444;18.444;2024-03-08T11:44:05;5.10;1.00
17146;DHT22;8688;54.444;18.444;2024-03-08T11:46:33;5.10;1.00
17146;DHT22;8688;54.444;18.444;2024-03-08T11:49:00;5.10;1.00
17146;DHT22;8688;54.444;18.444;2024-03-08T11:51:29;5.20;1.00
17146;DHT22;8688;54.444;18.444;2024-03-08T11:53:57;5.20;1.00
17146;DHT22;8688;54.444;18.444;2024-03-08T11:56:26;5.30;1.00
17146;DHT22;8688;54.444;18.444;2024-03-08T11:58:55;5.30;1.00
17146;DHT22;8688;54.444;18.444;2024-03-08T12:01:23;5.40;1.00
17146;DHT22;8688;54.444;18.444;2024-03-08T12:03:53;5.40;1.00
17146;DHT22;8688;54.444;18.444;2024-03-08T12:06:21;5.40;1.00
17146;DHT22;8688;54.444;18.444;2024-03-08T12:08:48;5.50;1.00
17146;DHT22;8688;54.444;18.444;2024-03-08T12:11:17;5.50;1.00
17146;DHT22;8688;54.444;18.444;2024-03-08T12:13:50;5.50;1.00
17146;DHT22;8688;54.444;18.444;2024-03-08T12:16:18;5.60;1.00
17146;DHT22;8688;54.444;18.444;2024-03-08T12:18:47;5.60;1.00
17146;DHT22;8688;54.444;18.444;2024-03-08T12:21:16;5.70;1.00
17146;DHT22;8688;54.444;18.444;2024-03-08T12:23:46;5.70;1.00
17146;DHT22;8688;54.444;18.444;2024-03-08T12:26:17;5.70;1.00
17146;DHT22;8688;54.444;18.444;2024-03-08T12:28:46;5.70;1.00
17146;DHT22;8688;54.444;18.444;2024-03-08T12:31:15;5.60;1.00
17146;DHT22;8688;54.444;18.444;2024-03-08T12:33:49;5.70;1.00
17146;DHT22;8688;54.444;18.444;2024-03-08T12:36:18;5.90;1.00
17146;DHT22;8688;54.444;18.444;2024-03-08T12:38:45;6.10;1.00
17146;DHT22;8688;54.444;18.444;2024-03-08T12:41:14;6.20;1.00
17146;DHT22;8688;54.444;18.444;2024-03-08T12:43:43;6.10;1.00
17146;DHT22;8688;54.444;18.444;2024-03-08T12:46:16;6.00;1.00
17146;DHT22;8688;54.444;18.444;2024-03-08T12:48:44;6.00;1.00
17146;DHT22;8688;54.444;18.444;2024-03-08T12:51:13;6.00;1.00
17146;DHT22;8688;54.444;18.444;2024-03-08T12:53:41;6.00;1.00
17146;DHT22;8688;54.444;18.444;2024-03-08T12:56:10;6.10;1.00
17146;DHT22;8688;54.444;18.444;2024-03-08T12:58:38;6.10;1.00
17146;DHT22;8688;54.444;18.444;2024-03-08T13:01:07;6.10;1.00
17146;DHT22;8688;54.444;18.444;2024-03-08T13:03:36;6.00;1.00
17146;DHT22;8688;54.444;18.444;2024-03-08T13:06:04;6.00;1.00
17146;DHT22;8688;54.444;18.444;2024-03-08T13:08:34;5.90;1.00
17146;DHT22;8688;54.444;18.444;2024-03-08T13:11:04;5.90;1.00
17146;DHT22;8688;54.444;18.444;2024-03-08T13:13:33;5.80;1.00
17146;DHT22;8688;54.444;18.444;2024-03-08T13:16:01;5.90;1.00
17146;DHT22;8688;54.444;18.444;2024-03-08T13:18:29;5.90;1.00
17146;DHT22;8688;54.444;18.444;2024-03-08T13:20:58;5.90;1.00
17146;DHT22;8688;54.444;18.444;2024-03-08T13:23:30;5.90;1.00
17146;DHT22;8688;54.444;18.444;2024-03-08T13:25:58;5.80;1.00
17146;DHT22;8688;54.444;18.444;2024-03-08T13:28:26;5.80;1.00
17146;DHT22;8688;54.444;18.444;2024-03-08T13:31:02;5.80;1.00
17146;DHT22;8688;54.444;18.444;2024-03-08T13:33:32;5.70;1.00
17146;DHT22;8688;54.444;18.444;2024-03-08T13:36:05;5.50;1.00
17146;DHT22;8688;54.444;18.444;2024-03-08T13:38:41;5.50;1.00
17146;DHT22;8688;54.444;18.444;2024-03-08T13:41:09;5.70;1.00
17146;DHT22;8688;54.444;18.444;2024-03-08T13:43:37;5.80;1.00
17146;DHT22;8688;54.444;18.444;2024-03-08T13:46:06;5.70;1.00
17146;DHT22;8688;54.444;18.444;2024-03-08T13:48:34;5.70;1.00
17146;DHT22;8688;54.444;18.444;2024-03-08T13:51:05;5.80;1.00
17146;DHT22;8688;54.444;18.444;2024-03-08T13:53:33;5.80;1.00
17146;DHT22;8688;54.444;18.444;2024-03-08T13:56:02;5.60;1.00
17146;DHT22;8688;54.444;18.444;2024-03-08T13:58:30;5.50;1.00
17146;DHT22;8688;54.444;18.444;2024-03-08T14:00:57;5.50;1.00
17146;DHT22;8688;54.444;18.444;2024-03-08T14:03:26;5.50;1.00
17146;DHT22;8688;54.444;18.444;2024-03-08T14:05:53;5.50;1.00
17146;DHT22;8688;54.444;18.444;2024-03-08T14:08:24;5.60;1.00
17146;DHT22;8688;54.444;18.444;2024-03-08T14:10:53;5.50;1.00
17146;DHT22;8688;54.444;18.444;2024-03-08T14:13:20;5.50;1.00
17146;DHT22;8688;54.444;18.444;2024-03-08T14:15:49;5.60;1.00
17146;DHT22;8688;54.444;18.444;2024-03-08T14:18:17;5.60;1.00
17146;DHT22;8688;54.444;18.444;2024-03-08T14:20:45;5.50;1.00
17146;DHT22;8688;54.444;18.444;2024-03-08T14:23:13;5.40;1.00
17146;DHT22;8688;54.444;18.444;2024-03-08T14:25:42;5.20;1.00
17146;DHT22;8688;54.444;18.444;2024-03-08T14:28:10;5.30;1.00
17146;DHT22;8688;54.444;18.444;2024-03-08T14:30:38;5.30;1.00
17146;DHT22;8688;54.444;18.444;2024-03-08T14:33:07;5.20;1.00
17146;DHT22;8688;54.444;18.444;2024-03-08T14:35:35;5.20;1.00
17146;DHT22;8688;54.444;18.444;2024-03-08T14:38:03;5.10;1.00
17146;DHT22;8688;54.444;18.444;2024-03-08T14:40:34;4.90;1.00
17146;DHT22;8688;54.444;18.444;2024-03-08T14:43:04;4.80;1.00
17146;DHT22;8688;54.444;18.444;2024-03-08T14:45:31;4.70;1.00
17146;DHT22;8688;54.444;18.444;2024-03-08T14:47:59;4.70;1.00
17146;DHT22;8688;54.444;18.444;2024-03-08T14:50:27;4.60;1.00
17146;DHT22;8688;54.444;18.444;2024-03-08T14:52:55;4.50;1.00
17146;DHT22;8688;54.444;18.444;2024-03-08T14:55:22;4.30;1.00
17146;DHT22;8688;54.444;18.444;2024-03-08T14:57:51;4.20;1.00
17146;DHT22;8688;54.444;18.444;2024-03-08T15:00:21;4.20;1.00
17146;DHT22;8688;54.444;18.444;2024-03-08T15:02:59;4.10;1.00
17146;DHT22;8688;54.444;18.444;2024-03-08T15:05:28;4.10;1.00
17146;DHT22;8688;54.444;18.444;2024-03-08T15:07:58;4.10;1.00
17146;DHT22;8688;54.444;18.444;2024-03-08T15:10:26;3.90;1.00
17146;DHT22;8688;54.444;18.444;2024-03-08T15:12:59;3.80;1.00
17146;DHT22;8688;54.444;18.444;2024-03-08T15:15:30;3.80;1.00
17146;DHT22;8688;54.444;18.444;2024-03-08T15:17:58;3.80;1.00
17146;DHT22;8688;54.444;18.444;2024-03-08T15:20:27;3.70;1.00
17146;DHT22;8688;54.444;18.444;2024-03-08T15:23:00;3.70;1.00
17146;DHT22;8688;54.444;18.444;2024-03-08T15:25:30;3.50;1.00
17146;DHT22;8688;54.444;18.444;2024-03-08T15:28:00;3.40;1.00
17146;DHT22;8688;54.444;18.444;2024-03-08T15:30:31;3.20;27.70
17146;DHT22;8688;54.444;18.444;2024-03-08T15:32:59;3.20;99.90
17146;DHT22;8688;54.444;18.444;2024-03-08T15:35:29;3.20;99.90
17146;DHT22;8688;54.444;18.444;2024-03-08T15:37:58;3.00;99.90
17146;DHT22;8688;54.444;18.444;2024-03-08T15:40:26;2.90;99.90
17146;DHT22;8688;54.444;18.444;2024-03-08T15:42:57;2.80;99.90
17146;DHT22;8688;54.444;18.444;2024-03-08T15:45:25;2.80;99.90
17146;DHT22;8688;54.444;18.444;2024-03-08T15:47:54;2.70;99.90
17146;DHT22;8688;54.444;18.444;2024-03-08T15:50:22;2.70;99.90
17146;DHT22;8688;54.444;18.444;2024-03-08T15:52:50;2.60;99.90
17146;DHT22;8688;54.444;18.444;2024-03-08T15:55:19;2.60;99.90
17146;DHT22;8688;54.444;18.444;2024-03-08T15:57:49;2.50;1.00
17146;DHT22;8688;54.444;18.444;2024-03-08T16:00:19;2.40;1.00